Time;durP1;ratioP1;P1;durP2;ratioP2;P2;SDS_P1;SDS_P2;PMS_P1;PMS_P2;Temp;Humidity;BMP_temperature;BMP_pressure;BME280_temperature;BME280_humidity;BME280_pressure;Samples;Min_cycle;Max_cycle;Signal;HPM_P1;HPM_P2
2022/10/22 00:02:18;;;;;;;14.80;13.30;;;9.70;99.90;;;;;;5118802;27;20490;-77
2022/10/22 00:04:45;;;;;;;19.00;13.67;;;9.60;99.90;;;;;;5111697;27;20465;-78
2022/10/22 00:07:18;;;;;;;17.03;14.80;;;9.50;99.90;;;;;;5120866;27;20916;-78
2022/10/22 00:09:46;;;;;;;16.07;14.00;;;9.60;99.90;;;;;;5122819;27;20877;-78
2022/10/22 00:12:15;;;;;;;14.67;13.17;;;9.50;99.90;;;;;;5119112;27;20466;-78
2022/10/22 00:14:43;;;;;;;16.07;14.40;;;9.50;99.90;;;;;;5115507;27;20460;-78
2022/10/22 00:17:10;;;;;;;17.30;15.07;;;9.60;99.90;;;;;;5120008;27;20518;-79
2022/10/22 00:19:37;;;;;;;19.97;15.90;;;9.50;99.90;;;;;;5111125;27;21106;-78
2022/10/22 00:22:05;;;;;;;15.93;14.27;;;9.50;99.90;;;;;;5115359;27;20511;-78
2022/10/22 00:24:32;;;;;;;17.97;13.50;;;9.50;99.90;;;;;;5122463;27;20461;-78
2022/10/22 00:26:59;;;;;;;20.43;12.97;;;9.60;99.90;;;;;;5108478;27;21034;-78
2022/10/22 00:29:28;;;;;;;15.10;12.97;;;9.70;99.90;;;;;;5110583;27;20505;-79
2022/10/22 00:31:56;;;;;;;15.03;13.47;;;9.60;99.90;;;;;;5115445;27;21230;-78
2022/10/22 00:34:23;;;;;;;14.40;12.90;;;9.60;99.90;;;;;;5124862;27;20453;-78
2022/10/22 00:36:51;;;;;;;15.50;13.10;;;9.60;99.90;;;;;;5108375;27;20485;-80
2022/10/22 00:39:20;;;;;;;17.37;13.40;;;9.60;99.90;;;;;;5111628;27;21089;-82
2022/10/22 00:41:50;;;;;;;15.60;12.87;;;9.50;99.90;;;;;;5112825;27;20529;-79
2022/10/22 00:44:54;;;;;;;13.33;12.03;;;9.50;99.90;;;;;;5111151;27;20456;-80
2022/10/22 00:47:24;;;;;;;15.97;14.30;;;9.50;99.90;;;;;;5116000;27;20922;-79
2022/10/22 00:49:52;;;;;;;15.53;13.20;;;9.50;99.90;;;;;;5109273;27;20912;-80
2022/10/22 00:52:20;;;;;;;15.40;13.80;;;9.50;99.90;;;;;;5113883;27;20907;-81
2022/10/22 00:54:47;;;;;;;16.03;14.37;;;9.50;99.90;;;;;;5112161;27;20457;-79
2022/10/22 00:57:14;;;;;;;18.50;13.07;;;9.50;99.90;;;;;;5121058;27;20843;-78
2022/10/22 00:59:43;;;;;;;14.70;13.10;;;9.50;99.90;;;;;;5112611;27;20574;-80
2022/10/22 01:02:10;;;;;;;21.10;14.77;;;9.40;99.90;;;;;;5119801;27;20465;-78
2022/10/22 01:04:38;;;;;;;18.00;13.70;;;9.40;99.90;;;;;;5115835;27;20460;-78
2022/10/22 01:07:05;;;;;;;17.83;14.00;;;9.40;99.90;;;;;;5120995;27;20510;-78
2022/10/22 01:09:39;;;;;;;17.60;14.67;;;9.40;99.90;;;;;;5110398;27;20543;-78
2022/10/22 01:12:14;;;;;;;14.23;12.73;;;9.40;99.90;;;;;;5115115;27;21137;-78
2022/10/22 01:15:00;;;;;;;15.50;12.83;;;9.30;99.90;;;;;;5106013;27;20949;-78
2022/10/22 01:17:38;;;;;;;17.03;13.87;;;9.30;99.90;;;;;;5110806;27;20464;-78
2022/10/22 01:20:19;;;;;;;16.03;14.07;;;9.30;99.90;;;;;;5119008;27;20509;-78
2022/10/22 01:22:54;;;;;;;16.20;13.90;;;9.30;99.90;;;;;;5111169;27;20480;-78
2022/10/22 01:25:32;;;;;;;15.13;13.53;;;9.40;99.90;;;;;;5113449;27;20484;-79
2022/10/22 01:28:14;;;;;;;19.30;15.97;;;9.40;99.90;;;;;;5113552;27;20489;-79
2022/10/22 01:30:44;;;;;;;18.90;14.67;;;9.30;99.90;;;;;;5117983;27;20440;-77
2022/10/22 01:33:15;;;;;;;15.37;12.73;;;9.30;99.90;;;;;;5116450;27;20461;-77
2022/10/22 01:35:45;;;;;;;17.40;14.63;;;9.20;99.90;;;;;;5116240;27;20454;-77
2022/10/22 01:38:15;;;;;;;16.87;13.23;;;9.20;99.90;;;;;;5108219;27;20485;-78
2022/10/22 01:40:43;;;;;;;19.97;15.57;;;9.10;99.90;;;;;;5114677;27;20566;-77
2022/10/22 01:43:12;;;;;;;17.47;15.60;;;9.00;99.90;;;;;;5117504;27;21030;-77
2022/10/22 01:45:42;;;;;;;15.87;13.83;;;9.00;99.90;;;;;;5112247;27;20466;-77
2022/10/22 01:48:26;;;;;;;15.43;13.90;;;9.00;99.90;;;;;;5113544;27;20532;-77
2022/10/22 01:51:13;;;;;;;15.90;13.53;;;9.00;99.90;;;;;;5112289;27;20566;-78
2022/10/22 01:53:50;;;;;;;14.57;13.03;;;8.90;99.90;;;;;;5106995;27;20542;-77
2022/10/22 01:56:31;;;;;;;17.80;13.60;;;8.90;99.90;;;;;;5113488;27;20992;-77
2022/10/22 01:59:07;;;;;;;17.73;15.03;;;8.90;99.90;;;;;;5107377;27;20457;-77
2022/10/22 02:01:42;;;;;;;15.60;13.37;;;8.90;99.90;;;;;;5119173;27;20668;-77
2022/10/22 02:04:18;;;;;;;15.13;13.50;;;9.00;99.90;;;;;;5120898;27;20457;-77
2022/10/22 02:06:48;;;;;;;17.40;13.97;;;8.90;99.90;;;;;;5118621;27;20491;-77
2022/10/22 02:09:18;;;;;;;15.53;13.47;;;8.90;99.90;;;;;;5111782;27;20538;-77
2022/10/22 02:11:46;;;;;;;15.70;14.00;;;9.00;99.90;;;;;;5107734;27;21196;-77
2022/10/22 02:14:16;;;;;;;17.27;13.43;;;9.00;99.90;;;;;;5114330;27;20851;-77
2022/10/22 02:16:45;;;;;;;18.60;13.70;;;9.10;99.90;;;;;;5110981;27;20554;-77
2022/10/22 02:19:19;;;;;;;17.80;13.73;;;9.10;99.90;;;;;;5107890;27;20454;-77
2022/10/22 02:21:46;;;;;;;15.90;13.73;;;9.20;99.90;;;;;;5109670;27;21286;-77
2022/10/22 02:24:13;;;;;;;15.47;13.87;;;9.20;99.90;;;;;;5110556;27;20466;-77
2022/10/22 02:26:45;;;;;;;19.70;13.80;;;9.20;99.90;;;;;;5116320;27;20485;-77
2022/10/22 02:29:18;;;;;;;18.80;13.80;;;9.30;99.90;;;;;;5117141;27;20484;-78
2022/10/22 02:31:48;;;;;;;17.37;13.47;;;9.40;99.90;;;;;;5116208;27;20486;-77
2022/10/22 02:34:22;;;;;;;16.10;14.40;;;9.30;99.90;;;;;;5113754;27;20817;-78
2022/10/22 02:36:50;;;;;;;16.73;13.70;;;9.20;99.90;;;;;;5106078;27;20466;-77
2022/10/22 02:39:18;;;;;;;18.60;14.57;;;9.20;99.90;;;;;;5106596;27;20523;-77
2022/10/22 02:41:46;;;;;;;17.40;14.60;;;9.20;99.90;;;;;;5103821;27;20485;-77
2022/10/22 02:44:13;;;;;;;20.00;15.27;;;9.30;99.90;;;;;;5110514;27;20511;-78
2022/10/22 02:46:40;;;;;;;17.00;15.13;;;9.30;99.90;;;;;;5112607;27;20465;-78
2022/10/22 02:49:07;;;;;;;15.63;13.67;;;9.20;99.90;;;;;;5105175;28;20481;-77
2022/10/22 02:51:36;;;;;;;18.20;15.80;;;9.10;99.90;;;;;;5114893;27;20502;-78
2022/10/22 02:54:03;;;;;;;14.87;13.17;;;9.20;99.90;;;;;;5106137;27;20450;-78
2022/10/22 02:56:30;;;;;;;18.63;14.27;;;9.10;99.90;;;;;;5110092;27;20494;-77
2022/10/22 02:58:57;;;;;;;16.80;15.07;;;9.00;99.90;;;;;;5113228;27;20574;-78
2022/10/22 03:01:24;;;;;;;21.03;16.33;;;8.90;99.90;;;;;;5115283;27;20570;-78
2022/10/22 03:03:51;;;;;;;19.50;15.70;;;8.80;99.90;;;;;;5114794;27;20821;-78
2022/10/22 03:06:18;;;;;;;20.37;15.30;;;8.80;99.90;;;;;;5112981;27;20953;-77
2022/10/22 03:08:47;;;;;;;19.77;15.77;;;8.70;99.90;;;;;;5106565;27;20523;-78
2022/10/22 03:11:14;;;;;;;17.47;14.87;;;8.80;99.90;;;;;;5121527;27;20457;-78
2022/10/22 03:13:41;;;;;;;18.07;15.97;;;8.80;99.90;;;;;;5116265;27;20510;-78
2022/10/22 03:16:08;;;;;;;19.73;15.90;;;8.80;99.90;;;;;;5115306;27;20484;-78
2022/10/22 03:18:35;;;;;;;18.60;16.27;;;8.70;99.90;;;;;;5108440;27;20458;-77
2022/10/22 03:21:08;;;;;;;18.97;15.10;;;8.70;99.90;;;;;;5118409;27;21112;-78
2022/10/22 03:23:36;;;;;;;17.67;15.00;;;8.70;99.90;;;;;;5114770;27;20793;-77
2022/10/22 03:26:06;;;;;;;16.53;14.50;;;8.70;99.90;;;;;;5114858;27;20473;-78
2022/10/22 03:28:34;;;;;;;19.63;15.27;;;8.70;99.90;;;;;;5106652;27;20486;-77
2022/10/22 03:31:01;;;;;;;20.00;16.20;;;8.80;99.90;;;;;;5122061;27;20489;-77
2022/10/22 03:33:28;;;;;;;18.47;15.97;;;8.80;99.90;;;;;;5107757;27;20525;-78
2022/10/22 03:35:55;;;;;;;18.67;16.67;;;8.90;99.90;;;;;;5116130;27;20537;-78
2022/10/22 03:38:22;;;;;;;18.23;14.87;;;8.90;99.90;;;;;;5111131;27;20521;-77
2022/10/22 03:40:49;;;;;;;18.80;15.43;;;8.80;99.90;;;;;;5105132;28;20481;-77
2022/10/22 03:43:18;;;;;;;22.03;17.60;;;8.80;99.90;;;;;;5105436;28;20546;-78
2022/10/22 03:45:45;;;;;;;21.97;19.07;;;8.80;99.90;;;;;;5107909;28;20493;-77
2022/10/22 03:48:11;;;;;;;20.17;16.50;;;8.80;99.90;;;;;;5123264;28;20995;-77
2022/10/22 03:50:39;;;;;;;19.13;16.30;;;8.80;99.90;;;;;;5118754;28;20452;-77
2022/10/22 03:53:09;;;;;;;19.50;15.47;;;8.70;99.90;;;;;;5105239;28;21031;-78
2022/10/22 03:55:37;;;;;;;21.67;19.10;;;8.70;99.90;;;;;;5110330;28;20456;-78
2022/10/22 03:58:04;;;;;;;20.77;16.80;;;8.50;99.90;;;;;;5111273;28;20457;-78
2022/10/22 04:00:32;;;;;;;25.20;16.10;;;8.50;99.90;;;;;;5112330;28;20512;-78
2022/10/22 04:02:59;;;;;;;21.27;17.47;;;8.60;99.90;;;;;;5114986;27;20521;-77
2022/10/22 04:05:26;;;;;;;21.57;19.27;;;8.60;99.90;;;;;;5117492;28;20538;-78
2022/10/22 04:07:53;;;;;;;18.33;16.30;;;8.60;99.90;;;;;;5118427;28;21054;-78
2022/10/22 04:10:20;;;;;;;22.53;17.80;;;8.60;99.90;;;;;;5107132;28;20589;-77
2022/10/22 04:12:48;;;;;;;20.37;18.27;;;8.60;99.90;;;;;;5116600;28;20878;-78
2022/10/22 04:15:15;;;;;;;20.07;18.07;;;8.50;99.90;;;;;;5107279;28;20446;-77
2022/10/22 04:17:43;;;;;;;21.40;17.80;;;8.50;99.90;;;;;;5109275;28;20441;-78
2022/10/22 04:20:11;;;;;;;20.37;17.97;;;8.50;99.90;;;;;;5108088;28;20560;-78
2022/10/22 04:22:38;;;;;;;21.97;17.33;;;8.40;99.90;;;;;;5105712;28;20534;-78
2022/10/22 04:25:06;;;;;;;19.23;16.73;;;8.40;99.90;;;;;;5102791;27;20457;-77
2022/10/22 04:27:34;;;;;;;25.60;20.37;;;8.50;99.90;;;;;;5107032;28;20485;-77
2022/10/22 04:30:01;;;;;;;22.13;19.27;;;8.50;99.90;;;;;;5108177;27;20546;-77
2022/10/22 04:32:28;;;;;;;30.97;21.20;;;8.50;99.90;;;;;;5110624;28;20465;-77
2022/10/22 04:34:56;;;;;;;32.90;19.40;;;8.60;99.90;;;;;;5107359;28;20902;-78
2022/10/22 04:37:24;;;;;;;24.00;20.00;;;8.60;99.90;;;;;;5120962;28;20990;-78
2022/10/22 04:39:51;;;;;;;25.40;19.70;;;8.60;99.90;;;;;;5111981;28;20461;-77
2022/10/22 04:42:18;;;;;;;24.67;21.47;;;8.50;99.90;;;;;;5105065;28;20481;-78
2022/10/22 04:44:45;;;;;;;22.90;19.47;;;8.60;99.90;;;;;;5102979;28;20929;-77
2022/10/22 04:47:11;;;;;;;24.40;20.53;;;8.70;99.90;;;;;;5107733;27;20530;-78
2022/10/22 04:49:38;;;;;;;24.93;20.07;;;8.70;99.90;;;;;;5118304;27;20462;-77
2022/10/22 04:52:07;;;;;;;23.67;21.20;;;8.70;99.90;;;;;;5108888;27;20457;-77
2022/10/22 04:54:34;;;;;;;25.00;21.50;;;8.70;99.90;;;;;;5108246;27;20485;-78
2022/10/22 04:57:01;;;;;;;29.27;22.10;;;8.80;99.90;;;;;;5117860;27;20546;-78
2022/10/22 04:59:27;;;;;;;28.47;20.80;;;8.80;99.90;;;;;;5109566;27;20528;-78
2022/10/22 05:01:54;;;;;;;23.93;20.57;;;8.90;99.90;;;;;;5106465;27;20518;-78
2022/10/22 05:04:21;;;;;;;24.17;20.57;;;8.90;99.90;;;;;;5115656;27;20461;-78
2022/10/22 05:06:48;;;;;;;25.63;20.77;;;8.90;99.90;;;;;;5111466;27;20925;-78
2022/10/22 05:09:19;;;;;;;26.00;21.67;;;9.00;99.90;;;;;;5113394;27;20445;-78
2022/10/22 05:11:48;;;;;;;24.03;19.60;;;9.10;99.90;;;;;;5110053;27;20465;-78
2022/10/22 05:14:17;;;;;;;23.10;20.57;;;9.10;99.90;;;;;;5112949;27;20454;-77
2022/10/22 05:16:46;;;;;;;32.17;20.83;;;9.10;99.90;;;;;;5117982;27;20804;-79
2022/10/22 05:19:18;;;;;;;25.80;19.50;;;9.10;99.90;;;;;;5112453;27;20469;-78
2022/10/22 05:21:45;;;;;;;25.73;20.73;;;9.20;99.90;;;;;;5114111;27;20487;-78
2022/10/22 05:24:12;;;;;;;26.83;20.97;;;9.20;99.90;;;;;;5114353;27;20489;-78
2022/10/22 05:26:42;;;;;;;24.43;20.23;;;9.20;99.90;;;;;;5113794;27;20513;-78
2022/10/22 05:29:09;;;;;;;24.67;19.77;;;9.20;99.90;;;;;;5107629;27;20477;-78
2022/10/22 05:31:37;;;;;;;25.20;19.07;;;9.20;99.90;;;;;;5112469;27;20530;-78
2022/10/22 05:34:04;;;;;;;22.57;19.17;;;9.30;99.90;;;;;;5106933;27;20828;-78
2022/10/22 05:36:31;;;;;;;22.33;18.87;;;9.40;99.90;;;;;;5109066;27;20461;-77
2022/10/22 05:38:58;;;;;;;24.67;19.60;;;9.40;99.90;;;;;;5103775;27;20546;-78
2022/10/22 05:41:26;;;;;;;21.67;19.57;;;9.50;99.90;;;;;;5107841;27;20562;-78
2022/10/22 05:43:57;;;;;;;22.13;18.93;;;9.50;99.90;;;;;;5114566;27;20924;-78
2022/10/22 05:46:26;;;;;;;24.53;21.40;;;9.50;99.90;;;;;;5116687;27;20515;-77
2022/10/22 05:48:54;;;;;;;28.93;20.33;;;9.60;99.90;;;;;;5111863;27;20485;-78
2022/10/22 05:51:21;;;;;;;24.23;20.90;;;9.60;99.90;;;;;;5112207;27;20489;-78
2022/10/22 05:53:52;;;;;;;24.23;20.90;;;9.60;99.90;;;;;;5106423;27;20538;-78
2022/10/22 05:56:19;;;;;;;26.63;20.30;;;9.70;99.90;;;;;;5106805;27;20462;-78
2022/10/22 05:58:46;;;;;;;24.60;20.47;;;9.70;99.90;;;;;;5115646;27;20534;-77
2022/10/22 06:01:16;;;;;;;22.20;19.33;;;9.70;99.90;;;;;;5118597;27;20537;-78
2022/10/22 06:03:45;;;;;;;20.43;18.33;;;9.70;99.90;;;;;;5120454;27;20450;-77
2022/10/22 06:06:18;;;;;;;20.87;18.67;;;9.70;99.90;;;;;;5114772;27;21149;-78
2022/10/22 06:08:46;;;;;;;25.17;18.60;;;9.70;99.90;;;;;;5117525;27;20541;-77
2022/10/22 06:11:13;;;;;;;23.70;18.10;;;9.70;99.90;;;;;;5116249;27;21219;-77
2022/10/22 06:13:40;;;;;;;27.20;21.90;;;9.80;99.90;;;;;;5116987;27;20519;-77
2022/10/22 06:16:07;;;;;;;23.40;19.57;;;9.80;99.90;;;;;;5104105;27;20466;-77
2022/10/22 06:18:35;;;;;;;24.10;19.77;;;9.90;99.90;;;;;;5110431;27;20458;-77
2022/10/22 06:21:06;;;;;;;24.50;20.77;;;9.80;99.90;;;;;;5118681;27;20484;-76
2022/10/22 06:23:33;;;;;;;23.57;18.20;;;9.90;99.90;;;;;;5108519;27;21005;-76
2022/10/22 06:26:00;;;;;;;26.20;19.40;;;10.00;99.90;;;;;;5113084;27;20847;-76
2022/10/22 06:28:28;;;;;;;24.07;19.13;;;10.00;99.90;;;;;;5115292;27;20548;-76
2022/10/22 06:30:56;;;;;;;18.70;16.80;;;10.00;99.90;;;;;;5109105;27;20457;-77
2022/10/22 06:33:23;;;;;;;21.57;16.77;;;10.20;99.90;;;;;;5108685;27;20955;-77
2022/10/22 06:35:52;;;;;;;18.77;16.40;;;10.30;99.90;;;;;;5109493;27;20990;-76
2022/10/22 06:38:19;;;;;;;20.57;16.80;;;10.40;99.90;;;;;;5116604;27;20977;-76
2022/10/22 06:40:46;;;;;;;18.33;16.43;;;10.50;99.90;;;;;;5108559;27;20486;-76
2022/10/22 06:43:14;;;;;;;19.23;16.07;;;10.60;99.90;;;;;;5117014;27;20480;-76
2022/10/22 06:45:41;;;;;;;17.97;16.10;;;10.70;99.90;;;;;;5116738;27;20453;-76
2022/10/22 06:48:08;;;;;;;21.67;14.77;;;10.80;99.90;;;;;;5121645;27;20525;-76
2022/10/22 06:50:35;;;;;;;16.03;13.80;;;10.90;99.90;;;;;;5117301;27;20549;-76
2022/10/22 06:53:04;;;;;;;14.13;12.83;;;11.10;99.90;;;;;;5105730;27;20449;-76
2022/10/22 06:55:30;;;;;;;16.27;13.30;;;11.10;99.90;;;;;;5111487;27;20895;-76
2022/10/22 06:57:57;;;;;;;14.60;11.90;;;11.30;99.90;;;;;;5108609;27;20457;-76
2022/10/22 07:00:24;;;;;;;11.47;10.10;;;11.40;99.90;;;;;;5110656;27;21174;-76
2022/10/22 07:02:52;;;;;;;13.77;11.30;;;11.50;99.90;;;;;;5104593;27;20514;-77
2022/10/22 07:05:20;;;;;;;10.37;9.27;;;11.60;99.90;;;;;;5111405;27;20458;-76
2022/10/22 07:07:47;;;;;;;12.07;10.30;;;11.70;99.90;;;;;;5109756;27;20913;-76
2022/10/22 07:10:16;;;;;;;9.77;8.83;;;11.80;99.90;;;;;;5110454;27;20494;-76
2022/10/22 07:12:43;;;;;;;10.40;8.40;;;11.90;99.90;;;;;;5114263;27;20526;-76
2022/10/22 07:15:10;;;;;;;10.43;9.23;;;12.00;99.90;;;;;;5112971;27;20477;-76
2022/10/22 07:17:37;;;;;;;8.43;7.57;;;12.10;99.90;;;;;;5108386;27;20483;-76
2022/10/22 07:20:05;;;;;;;8.93;8.03;;;12.20;99.90;;;;;;5115068;27;20516;-76
2022/10/22 07:22:32;;;;;;;6.90;6.20;;;12.30;99.90;;;;;;5116604;27;20543;-77
2022/10/22 07:24:59;;;;;;;7.30;6.70;;;12.40;99.90;;;;;;5105105;27;20466;-76
2022/10/22 07:27:27;;;;;;;7.53;6.93;;;12.50;99.90;;;;;;5106828;27;20482;-77
2022/10/22 07:29:54;;;;;;;4.53;4.23;;;12.60;99.90;;;;;;5114865;27;20554;-76
2022/10/22 07:32:21;;;;;;;10.00;6.80;;;12.70;99.90;;;;;;5101113;27;20457;-78
2022/10/22 07:34:49;;;;;;;8.50;7.80;;;12.80;99.90;;;;;;5104985;27;20489;-78
2022/10/22 07:37:16;;;;;;;8.63;8.00;;;12.90;99.90;;;;;;5103645;28;20494;-77
2022/10/22 07:39:45;;;;;;;13.80;12.70;;;12.90;99.90;;;;;;5101352;27;20465;-77
2022/10/22 07:42:12;;;;;;;6.20;5.70;;;12.90;99.90;;;;;;5103985;27;20475;-78
2022/10/22 07:44:40;;;;;;;6.33;4.47;;;13.10;99.90;;;;;;5105570;28;20501;-78
2022/10/22 07:47:07;;;;;;;21.77;19.53;;;13.20;99.90;;;;;;5103802;28;20531;-78
2022/10/22 07:49:34;;;;;;;23.87;20.67;;;13.20;99.90;;;;;;5104088;28;21367;-78
2022/10/22 07:52:01;;;;;;;20.27;18.10;;;12.80;99.90;;;;;;5101074;27;20494;-78
2022/10/22 07:54:28;;;;;;;20.00;18.00;;;12.40;99.90;;;;;;5102130;28;20881;-79
2022/10/22 07:56:55;;;;;;;20.07;18.07;;;12.30;99.90;;;;;;5104995;27;20455;-79
2022/10/22 07:59:22;;;;;;;23.33;19.00;;;12.20;99.90;;;;;;5110416;28;20528;-79
2022/10/22 08:01:51;;;;;;;24.13;18.60;;;12.10;99.90;;;;;;5104636;27;20724;-79
2022/10/22 08:04:18;;;;;;;20.90;17.97;;;12.20;99.90;;;;;;5104810;28;20553;-79
2022/10/22 08:06:45;;;;;;;20.13;15.43;;;12.40;99.90;;;;;;5103314;28;20480;-79
2022/10/22 08:09:12;;;;;;;19.37;17.53;;;12.40;99.90;;;;;;5103105;28;20467;-79
2022/10/22 08:11:39;;;;;;;21.10;17.73;;;12.20;99.90;;;;;;5103587;27;20935;-79
2022/10/22 08:14:06;;;;;;;20.43;18.33;;;12.30;99.90;;;;;;5101891;28;20455;-79
2022/10/22 08:16:33;;;;;;;21.97;19.63;;;12.30;99.90;;;;;;5104930;27;20502;-79
2022/10/22 08:19:02;;;;;;;21.20;18.97;;;12.20;99.90;;;;;;5099430;28;20496;-79
2022/10/22 08:21:29;;;;;;;24.97;19.80;;;12.10;99.90;;;;;;5102836;27;21064;-79
2022/10/22 08:23:56;;;;;;;19.37;17.40;;;12.10;99.90;;;;;;5112066;27;20519;-79
2022/10/22 08:26:23;;;;;;;22.60;20.30;;;12.10;99.90;;;;;;5118291;27;20487;-79
2022/10/22 08:28:51;;;;;;;21.70;17.73;;;12.10;99.90;;;;;;5112910;27;20483;-77
2022/10/22 08:31:18;;;;;;;19.30;17.20;;;11.80;99.90;;;;;;5117252;27;20507;-78
2022/10/22 08:33:45;;;;;;;19.00;17.07;;;11.70;99.90;;;;;;5113081;27;20947;-77
2022/10/22 08:36:13;;;;;;;19.63;17.63;;;11.80;99.90;;;;;;5115365;27;20527;-77
2022/10/22 08:38:40;;;;;;;22.00;17.53;;;11.80;99.90;;;;;;5116933;27;21258;-77
2022/10/22 08:41:11;;;;;;;18.47;16.47;;;12.00;99.90;;;;;;5106520;27;20556;-77
2022/10/22 08:43:58;;;;;;;20.13;17.63;;;12.10;99.90;;;;;;5120787;27;20966;-77
2022/10/22 08:46:38;;;;;;;20.23;18.10;;;12.10;99.90;;;;;;5113743;27;20488;-77
2022/10/22 08:49:12;;;;;;;19.83;17.60;;;12.10;99.90;;;;;;5109865;27;20470;-78
2022/10/22 08:51:41;;;;;;;21.73;18.90;;;12.20;99.90;;;;;;5110973;27;20556;-79
2022/10/22 08:54:27;;;;;;;18.00;16.20;;;12.30;99.90;;;;;;5098777;27;20534;-78
2022/10/22 08:57:05;;;;;;;17.33;15.50;;;12.70;99.90;;;;;;5092343;27;20901;-78
2022/10/22 08:59:39;;;;;;;17.70;16.03;;;12.90;99.90;;;;;;5105961;27;20459;-78
2022/10/22 09:02:22;;;;;;;17.60;15.80;;;13.30;99.90;;;;;;5102176;27;20586;-78
2022/10/22 09:04:56;;;;;;;17.40;15.73;;;13.50;99.90;;;;;;5114132;27;22509;-76
2022/10/22 09:07:24;;;;;;;16.60;14.93;;;13.50;99.90;;;;;;5107093;27;20472;-76
2022/10/22 09:09:53;;;;;;;16.70;14.63;;;13.70;99.90;;;;;;5112708;27;20616;-76
2022/10/22 09:12:28;;;;;;;17.43;15.60;;;13.70;99.90;;;;;;5106042;27;20457;-77
2022/10/22 09:14:55;;;;;;;17.20;14.33;;;13.60;99.90;;;;;;5105138;27;20491;-75
2022/10/22 09:17:32;;;;;;;15.67;14.07;;;13.60;99.90;;;;;;5114303;27;20516;-75
2022/10/22 09:20:06;;;;;;;14.90;13.40;;;13.20;99.90;;;;;;5110704;27;20921;-75
2022/10/22 09:22:39;;;;;;;17.10;14.97;;;13.20;99.90;;;;;;5115554;27;20476;-75
2022/10/22 09:25:18;;;;;;;20.17;15.33;;;13.30;99.90;;;;;;5112122;27;20492;-75
2022/10/22 09:27:45;;;;;;;18.60;16.60;;;13.10;99.90;;;;;;5110012;27;20491;-76
2022/10/22 09:30:16;;;;;;;20.20;18.23;;;13.10;99.90;;;;;;5106552;27;20550;-75
2022/10/22 09:32:43;;;;;;;18.63;16.73;;;13.10;99.90;;;;;;5121455;27;20463;-76
2022/10/22 09:35:11;;;;;;;18.80;16.80;;;13.20;99.90;;;;;;5105223;27;20501;-75
2022/10/22 09:37:48;;;;;;;21.20;19.00;;;13.30;99.90;;;;;;5104134;27;20497;-76
2022/10/22 09:40:16;;;;;;;22.13;19.80;;;13.30;99.90;;;;;;5103370;27;21119;-76
2022/10/22 09:42:44;;;;;;;19.70;17.47;;;13.30;99.90;;;;;;5114889;27;20567;-76
2022/10/22 09:45:18;;;;;;;19.47;17.60;;;13.40;99.90;;;;;;5106875;27;20826;-76
2022/10/22 09:47:45;;;;;;;17.07;15.03;;;13.30;99.90;;;;;;5113795;27;20529;-76
2022/10/22 09:50:21;;;;;;;18.23;16.43;;;13.40;99.90;;;;;;5114430;27;20464;-76
2022/10/22 09:52:59;;;;;;;19.57;17.63;;;13.50;99.90;;;;;;5108654;27;21291;-76
2022/10/22 09:55:28;;;;;;;17.23;15.43;;;13.50;99.90;;;;;;5107649;27;20499;-76
2022/10/22 09:57:56;;;;;;;14.87;13.20;;;13.50;99.90;;;;;;5107325;27;20537;-76
2022/10/22 10:00:24;;;;;;;15.67;14.00;;;13.60;99.90;;;;;;5114162;27;20582;-76
2022/10/22 10:02:56;;;;;;;21.77;17.73;;;13.60;99.90;;;;;;5105521;27;21067;-76
2022/10/22 10:05:28;;;;;;;15.20;13.67;;;13.70;99.90;;;;;;5105535;27;20463;-75
2022/10/22 10:07:57;;;;;;;17.30;15.63;;;13.80;99.90;;;;;;5110307;27;20507;-76
2022/10/22 10:10:35;;;;;;;15.23;13.83;;;13.90;99.90;;;;;;5112130;27;20465;-76
2022/10/22 10:13:17;;;;;;;11.10;10.10;;;13.90;99.90;;;;;;5109050;27;20544;-76
2022/10/22 10:15:51;;;;;;;8.50;7.70;;;13.90;99.90;;;;;;5112884;27;20471;-76
2022/10/22 10:18:32;;;;;;;6.77;6.13;;;14.00;99.90;;;;;;5102518;27;20456;-76
2022/10/22 10:21:09;;;;;;;7.47;6.77;;;14.00;99.90;;;;;;5101735;27;20468;-76
2022/10/22 10:23:56;;;;;;;2.70;2.50;;;14.10;99.90;;;;;;5108547;27;20484;-76
2022/10/22 10:26:31;;;;;;;3.10;2.63;;;14.10;99.90;;;;;;5107801;27;20496;-76
2022/10/22 10:29:11;;;;;;;2.40;2.20;;;14.20;99.90;;;;;;5111424;27;20477;-76
2022/10/22 10:31:45;;;;;;;6.30;1.87;;;14.20;99.90;;;;;;5109667;27;20489;-76
2022/10/22 10:34:24;;;;;;;1.20;1.10;;;14.30;99.90;;;;;;5108818;27;20555;-76
2022/10/22 10:37:01;;;;;;;1.00;1.00;;;14.30;99.90;;;;;;5107453;27;20547;-76
2022/10/22 10:39:39;;;;;;;2.87;1.63;;;14.30;99.90;;;;;;5108690;27;20569;-76
2022/10/22 10:42:14;;;;;;;2.53;1.90;;;14.30;99.90;;;;;;5103929;27;20483;-77
2022/10/22 10:44:54;;;;;;;2.10;1.53;;;14.30;99.90;;;;;;5107810;27;20512;-76
2022/10/22 10:47:49;;;;;;;3.60;2.57;;;14.20;99.90;;;;;;5105056;27;20486;-76
2022/10/22 10:50:23;;;;;;;2.47;2.27;;;14.20;99.90;;;;;;5109295;27;21061;-76
2022/10/22 10:52:58;;;;;;;2.43;2.17;;;14.10;99.90;;;;;;5108633;27;20558;-76
2022/10/22 10:55:32;;;;;;;2.80;2.33;;;14.10;99.90;;;;;;5105226;27;20461;-76
2022/10/22 10:58:10;;;;;;;2.57;1.63;;;14.10;99.90;;;;;;5106184;27;20453;-76
2022/10/22 11:00:46;;;;;;;1.47;1.20;;;14.10;99.90;;;;;;5111408;27;20484;-76
2022/10/22 11:03:50;;;;;;;2.47;2.10;;;14.10;99.90;;;;;;5109383;27;21275;-76
2022/10/22 11:06:20;;;;;;;2.40;1.70;;;14.10;99.90;;;;;;5111821;27;20493;-77
2022/10/22 11:08:53;;;;;;;2.60;1.00;;;14.20;99.90;;;;;;5110579;27;20467;-76
2022/10/22 11:11:26;;;;;;;2.83;1.60;;;14.20;99.90;;;;;;5106558;27;20464;-77
2022/10/22 11:13:59;;;;;;;1.57;1.17;;;14.20;99.90;;;;;;5104301;27;20486;-76
2022/10/22 11:16:30;;;;;;;1.00;0.60;;;14.20;99.90;;;;;;5103332;27;20550;-76
2022/10/22 11:19:03;;;;;;;0.77;0.63;;;14.20;99.90;;;;;;5107864;27;20485;-76
2022/10/22 11:21:36;;;;;;;1.27;0.80;;;14.10;99.90;;;;;;5109904;27;20500;-76
2022/10/22 11:24:10;;;;;;;0.90;0.90;;;14.10;99.90;;;;;;5105425;27;20585;-77
2022/10/22 11:26:44;;;;;;;1.10;1.00;;;14.10;99.90;;;;;;5119321;27;20828;-76
2022/10/22 11:29:15;;;;;;;1.67;0.70;;;14.20;99.90;;;;;;5106319;27;20972;-76
2022/10/22 11:31:43;;;;;;;0.90;0.90;;;14.20;99.90;;;;;;5111394;27;20567;-76
2022/10/22 11:34:18;;;;;;;3.73;1.23;;;14.20;99.90;;;;;;5103645;28;20462;-76
2022/10/22 11:36:46;;;;;;;2.10;1.80;;;14.20;99.90;;;;;;5111577;27;20486;-76
2022/10/22 11:39:35;;;;;;;1.40;1.20;;;14.20;99.90;;;;;;5115028;27;20919;-76
2022/10/22 11:42:06;;;;;;;1.57;1.40;;;14.20;99.90;;;;;;5113157;27;20455;-76
2022/10/22 11:44:46;;;;;;;1.73;1.07;;;14.10;99.90;;;;;;5110414;28;20946;-76
2022/10/22 11:47:19;;;;;;;1.20;1.03;;;14.10;99.90;;;;;;5106248;27;20545;-76
2022/10/22 11:49:55;;;;;;;0.87;0.70;;;14.00;99.90;;;;;;5104309;28;20459;-76
2022/10/22 11:52:25;;;;;;;1.10;0.80;;;14.00;99.90;;;;;;5106111;28;20450;-76
2022/10/22 11:54:56;;;;;;;1.97;0.90;;;14.00;99.90;;;;;;5107292;28;21126;-76
2022/10/22 11:57:35;;;;;;;1.40;0.87;;;14.00;99.90;;;;;;5109011;27;20558;-76
2022/10/22 12:00:10;;;;;;;0.80;0.70;;;14.00;99.90;;;;;;5105952;27;20985;-76
2022/10/22 12:02:42;;;;;;;1.23;1.03;;;14.00;99.90;;;;;;5115976;27;21015;-76
2022/10/22 12:05:43;;;;;;;1.57;0.70;;;14.10;99.90;;;;;;5106751;27;20492;-76
2022/10/22 12:08:31;;;;;;;1.10;1.00;;;14.10;99.90;;;;;;5111996;27;20543;-77
2022/10/22 12:11:03;;;;;;;1.00;0.83;;;14.20;99.90;;;;;;5105871;27;20550;-76
2022/10/22 12:13:34;;;;;;;0.80;0.73;;;14.20;99.90;;;;;;5115573;27;20491;-76
2022/10/22 12:16:03;;;;;;;3.27;1.27;;;14.40;99.90;;;;;;5121686;27;21021;-76
2022/10/22 12:18:41;;;;;;;1.83;1.23;;;14.50;99.90;;;;;;5119191;27;20977;-76
2022/10/22 12:21:13;;;;;;;2.10;1.00;;;14.70;99.90;;;;;;5113931;27;20462;-76
2022/10/22 12:23:40;;;;;;;1.57;1.03;;;14.80;99.90;;;;;;5115269;27;21488;-76
2022/10/22 12:26:23;;;;;;;2.30;1.17;;;14.80;99.90;;;;;;5115413;27;20523;-77
2022/10/22 12:28:51;;;;;;;1.40;1.30;;;14.90;99.90;;;;;;5120909;27;20492;-76
2022/10/22 12:31:18;;;;;;;1.47;0.80;;;15.00;99.90;;;;;;5112896;27;20632;-76
2022/10/22 12:33:45;;;;;;;1.47;1.00;;;15.10;99.90;;;;;;5118355;27;20530;-76
2022/10/22 12:36:17;;;;;;;1.20;0.93;;;15.30;99.90;;;;;;5108278;27;20492;-77
2022/10/22 12:38:47;;;;;;;8.20;1.17;;;15.20;99.90;;;;;;5109784;27;20569;-76
2022/10/22 12:41:14;;;;;;;1.43;1.33;;;15.00;99.90;;;;;;5111201;27;20461;-77
2022/10/22 12:43:41;;;;;;;3.43;1.23;;;15.10;99.90;;;;;;5113689;27;21034;-77
2022/10/22 12:46:13;;;;;;;3.03;1.00;;;15.10;99.90;;;;;;5108449;27;20868;-77
2022/10/22 12:48:43;;;;;;;3.10;1.50;;;15.00;99.90;;;;;;5109998;27;20461;-77
2022/10/22 12:51:16;;;;;;;1.00;0.90;;;14.90;99.90;;;;;;5106381;27;20471;-76
2022/10/22 12:53:46;;;;;;;0.97;0.80;;;14.90;99.90;;;;;;5114455;27;20483;-77